sim
Sign-in with your pilot id or email,
or register
Callsign
Passwort

Schedule Details

Flight Number: RYR5000
Departure: Bologna Guglielmo Marconi Airport (LIPE) at 09:25
Arrival: Bratislava M. R. Stefanik Airport (LZIB) at 10:50
Route: Ryanair Passenger Schedule. Enter filed route here before submitting Pirep.

Weather Information
Getting current METAR information for LIPE 231950Z 08004KT CAVOK 17/15 Q1017
Getting current METAR information for LZIB 232000Z 05007KT CAVOK 13/10 Q1017

Schedule Frequency

Route Map